Time;durP1;ratioP1;P1;durP2;ratioP2;P2;SDS_P1;SDS_P2;PMS_P1;PMS_P2;Temp;Humidity;BMP_temperature;BMP_pressure;BME280_temperature;BME280_humidity;BME280_pressure;Samples;Min_cycle;Max_cycle;Signal;HPM_P1;HPM_P2
2022/11/28 00:02:12;;;;;;;14.13;7.45;;;6.20;99.90;;;;;;5080775;28;20035;-80
2022/11/28 00:04:38;;;;;;;13.27;6.63;;;6.20;99.90;;;;;;5081304;28;20057;-82
2022/11/28 00:07:04;;;;;;;12.93;6.78;;;6.20;99.90;;;;;;5089042;28;20043;-81
2022/11/28 00:09:29;;;;;;;14.43;7.13;;;6.20;99.90;;;;;;5082594;28;20040;-81
2022/11/28 00:11:55;;;;;;;15.23;6.95;;;6.90;99.90;;;;;;5076704;28;20044;-81
2022/11/28 00:14:21;;;;;;;12.68;7.03;;;6.20;99.90;;;;;;5085117;28;20063;-82
2022/11/28 00:16:47;;;;;;;13.38;7.28;;;6.20;99.90;;;;;;5072366;28;20043;-78
2022/11/28 00:19:13;;;;;;;14.00;6.93;;;7.90;99.90;;;;;;5088083;28;20036;-80
2022/11/28 00:21:40;;;;;;;13.88;7.05;;;6.20;99.90;;;;;;5090359;28;20073;-80
2022/11/28 00:24:07;;;;;;;17.55;7.10;;;6.50;99.90;;;;;;5084342;28;20043;-80
2022/11/28 00:26:35;;;;;;;12.93;6.95;;;6.20;99.90;;;;;;5098500;28;20546;-81
2022/11/28 00:29:02;;;;;;;14.55;7.20;;;6.20;99.90;;;;;;5074600;28;20432;-79
2022/11/28 00:31:34;;;;;;;14.45;7.40;;;6.20;99.90;;;;;;5064979;28;20048;-80
2022/11/28 00:34:00;;;;;;;14.57;7.10;;;7.10;99.90;;;;;;5079831;28;20043;-82
2022/11/28 00:36:27;;;;;;;14.25;6.45;;;6.20;99.90;;;;;;5070273;28;20032;-82
2022/11/28 00:38:53;;;;;;;13.73;7.13;;;6.20;99.90;;;;;;5054405;28;20266;-81
2022/11/28 00:41:22;;;;;;;15.02;7.03;;;6.20;99.90;;;;;;5037227;28;20040;-81
2022/11/28 00:43:49;;;;;;;16.02;7.32;;;6.20;99.90;;;;;;5085900;28;20040;-82
2022/11/28 00:46:17;;;;;;;14.00;7.28;;;6.20;99.90;;;;;;5057510;28;20373;-81
2022/11/28 00:48:43;;;;;;;14.73;7.45;;;6.60;99.90;;;;;;5061735;28;20089;-81
2022/11/28 00:51:13;;;;;;;13.50;7.40;;;6.20;99.90;;;;;;5087283;28;20037;-81
2022/11/28 00:53:41;;;;;;;15.07;7.85;;;6.30;99.90;;;;;;5076539;28;20124;-81
2022/11/28 00:56:10;;;;;;;13.43;6.88;;;6.20;99.90;;;;;;5074543;28;20047;-80
2022/11/28 00:58:37;;;;;;;14.82;7.63;;;6.30;99.90;;;;;;5071370;28;20079;-80
2022/11/28 01:01:16;;;;;;;14.63;7.30;;;6.30;99.90;;;;;;5066486;28;20093;-80
2022/11/28 01:03:42;;;;;;;14.35;6.90;;;6.30;99.90;;;;;;5076105;28;20044;-81
2022/11/28 01:06:09;;;;;;;13.77;6.53;;;6.50;99.90;;;;;;5086689;28;20035;-80
2022/11/28 01:08:38;;;;;;;11.45;6.40;;;6.80;99.90;;;;;;5061427;28;20057;-81
2022/11/28 01:11:10;;;;;;;15.32;7.00;;;6.30;99.90;;;;;;5047779;28;20533;-80
2022/11/28 01:13:35;;;;;;;13.27;7.00;;;6.80;99.90;;;;;;5072000;28;20113;-81
2022/11/28 01:16:01;;;;;;;12.55;6.50;;;6.30;99.90;;;;;;5063573;28;20128;-81
2022/11/28 01:18:27;;;;;;;13.68;6.47;;;6.30;99.90;;;;;;5035994;28;20429;-79
2022/11/28 01:20:52;;;;;;;13.05;6.70;;;6.50;99.90;;;;;;5056163;28;20405;-81
2022/11/28 01:23:18;;;;;;;12.90;6.65;;;6.30;99.90;;;;;;5061759;28;20037;-80
2022/11/28 01:25:44;;;;;;;13.55;7.40;;;7.70;99.90;;;;;;5082757;28;20096;-80
2022/11/28 01:28:10;;;;;;;15.32;7.00;;;7.70;99.90;;;;;;5077626;28;20044;-79
2022/11/28 01:30:35;;;;;;;13.32;7.10;;;7.90;99.90;;;;;;5073732;28;20033;-80
2022/11/28 01:33:01;;;;;;;12.93;7.10;;;6.30;99.90;;;;;;5074611;28;20036;-81
2022/11/28 01:35:27;;;;;;;14.77;7.07;;;6.40;99.90;;;;;;5074205;28;20043;-80
2022/11/28 01:37:53;;;;;;;13.80;6.82;;;7.60;99.90;;;;;;5062722;28;20048;-80
2022/11/28 01:40:19;;;;;;;12.57;6.78;;;6.40;99.90;;;;;;5087093;28;20042;-81
2022/11/28 01:42:45;;;;;;;13.82;7.13;;;6.50;99.90;;;;;;5091464;28;20048;-80
2022/11/28 01:45:24;;;;;;;13.75;7.75;;;7.10;99.90;;;;;;5059343;28;20040;-80
2022/11/28 01:47:51;;;;;;;12.90;7.13;;;6.40;99.90;;;;;;5087771;28;20397;-81
2022/11/28 01:50:19;;;;;;;15.10;7.32;;;7.70;99.90;;;;;;5085877;28;20550;-80
2022/11/28 01:52:48;;;;;;;15.25;7.07;;;6.40;99.90;;;;;;5082892;28;20045;-81
2022/11/28 01:55:18;;;;;;;13.52;7.32;;;6.40;99.90;;;;;;5070323;28;20520;-79
2022/11/28 01:57:44;;;;;;;14.18;7.05;;;6.50;99.90;;;;;;5086456;28;20547;-81
2022/11/28 02:00:19;;;;;;;14.70;7.15;;;6.50;99.90;;;;;;5089553;28;20036;-80
2022/11/28 02:02:56;;;;;;;15.40;7.25;;;6.50;99.90;;;;;;5083402;28;20050;-80
2022/11/28 02:05:22;;;;;;;14.15;7.30;;;6.50;99.90;;;;;;5087400;28;20044;-80
2022/11/28 02:07:49;;;;;;;13.93;7.85;;;6.50;99.90;;;;;;5068197;28;20040;-80
2022/11/28 02:10:20;;;;;;;16.58;6.88;;;6.50;99.90;;;;;;5075052;28;20540;-81
2022/11/28 02:12:58;;;;;;;12.20;6.60;;;6.50;99.90;;;;;;5068416;28;20044;-80
2022/11/28 02:15:31;;;;;;;16.85;7.32;;;6.50;99.90;;;;;;5092066;28;20052;-81
2022/11/28 02:18:34;;;;;;;15.38;7.40;;;6.50;99.90;;;;;;5062064;28;20061;-80
2022/11/28 02:21:03;;;;;;;16.08;7.63;;;6.50;99.90;;;;;;5071600;28;20037;-80
2022/11/28 02:24:00;;;;;;;14.25;7.40;;;6.50;99.90;;;;;;5083517;28;20040;-79
2022/11/28 02:26:47;;;;;;;14.25;7.72;;;6.50;99.90;;;;;;5077237;28;20127;-81
2022/11/28 02:29:35;;;;;;;16.17;8.07;;;6.50;99.90;;;;;;5071151;28;20039;-81
2022/11/28 02:32:19;;;;;;;16.05;8.23;;;6.50;99.90;;;;;;5087086;28;20059;-81
2022/11/28 02:34:56;;;;;;;17.05;8.63;;;6.50;99.90;;;;;;5084668;28;20048;-80
2022/11/28 02:37:35;;;;;;;15.55;8.63;;;6.50;99.90;;;;;;5073234;28;20098;-81
2022/11/28 02:40:23;;;;;;;17.02;8.75;;;6.50;99.90;;;;;;5071570;28;20040;-81
2022/11/28 02:43:10;;;;;;;15.63;9.02;;;6.50;99.90;;;;;;5080002;28;20044;-80
2022/11/28 02:45:57;;;;;;;14.32;8.77;;;6.50;99.90;;;;;;5054212;28;20048;-81
2022/11/28 02:48:49;;;;;;;17.70;9.25;;;6.50;99.90;;;;;;5069764;28;20508;-81
2022/11/28 02:51:44;;;;;;;15.60;8.35;;;6.50;99.90;;;;;;5071695;28;20429;-80
2022/11/28 02:54:13;;;;;;;18.60;9.32;;;6.50;99.90;;;;;;5069484;28;20051;-81
2022/11/28 02:56:54;;;;;;;17.70;9.02;;;6.50;99.90;;;;;;5081697;28;20044;-81
2022/11/28 02:59:44;;;;;;;16.42;8.82;;;6.50;99.90;;;;;;5058851;28;20109;-80
2022/11/28 03:02:21;;;;;;;14.85;8.65;;;6.50;99.90;;;;;;5065858;28;20498;-80
2022/11/28 03:05:12;;;;;;;18.70;8.82;;;6.50;99.90;;;;;;5070940;28;20044;-80
2022/11/28 03:08:10;;;;;;;18.48;9.25;;;6.50;99.90;;;;;;5058020;28;20416;-80
2022/11/28 03:10:47;;;;;;;14.75;8.60;;;7.00;99.90;;;;;;5056570;28;20052;-80
2022/11/28 03:13:32;;;;;;;15.50;8.30;;;6.50;99.90;;;;;;5070969;28;20061;-81
2022/11/28 03:16:10;;;;;;;14.30;7.60;;;6.50;99.90;;;;;;5083501;28;20036;-80
2022/11/28 03:18:49;;;;;;;15.07;8.30;;;6.50;99.90;;;;;;5075145;28;20382;-80
2022/11/28 03:21:58;;;;;;;15.30;8.07;;;6.50;99.90;;;;;;5076023;28;20047;-81
2022/11/28 03:24:32;;;;;;;16.27;8.23;;;6.50;99.90;;;;;;5065987;28;20086;-79
2022/11/28 03:27:08;;;;;;;17.48;8.73;;;6.50;99.90;;;;;;5105898;28;20078;-80
2022/11/28 03:29:52;;;;;;;16.80;8.15;;;6.50;99.90;;;;;;5071039;28;20149;-81
2022/11/28 03:32:26;;;;;;;14.82;8.25;;;6.50;99.90;;;;;;5081686;28;20521;-80
2022/11/28 03:34:58;;;;;;;16.52;9.05;;;6.50;99.90;;;;;;5084144;28;20051;-80
2022/11/28 03:37:40;;;;;;;18.17;10.15;;;6.50;99.90;;;;;;5076566;28;20040;-81
2022/11/28 03:40:11;;;;;;;16.10;9.63;;;6.50;99.90;;;;;;5086889;28;20032;-81
2022/11/28 03:42:59;;;;;;;17.08;9.60;;;6.50;99.90;;;;;;5096956;28;20043;-81
2022/11/28 03:45:34;;;;;;;15.63;9.18;;;6.80;99.90;;;;;;5086692;28;20036;-80
2022/11/28 03:48:23;;;;;;;17.77;9.73;;;6.50;99.90;;;;;;5075739;28;20070;-80
2022/11/28 03:51:35;;;;;;;15.82;9.73;;;6.50;99.90;;;;;;5072403;28;20051;-80
2022/11/28 03:54:10;;;;;;;16.92;9.82;;;6.50;99.90;;;;;;5068313;28;20128;-81
2022/11/28 03:56:44;;;;;;;16.88;10.02;;;6.50;99.90;;;;;;5090665;28;20043;-80
2022/11/28 03:59:17;;;;;;;17.55;10.05;;;6.80;99.90;;;;;;5088778;28;20040;-80
2022/11/28 04:01:44;;;;;;;;;;;6.50;99.90;;;;;;5086988;28;20067;-80
2022/11/28 04:04:26;;;;;;;17.45;9.93;;;6.50;99.90;;;;;;5076073;28;19955;-80
2022/11/28 04:06:58;;;;;;;18.05;10.35;;;6.50;99.90;;;;;;5068199;28;20051;-81
2022/11/28 04:09:38;;;;;;;18.52;10.07;;;6.50;99.90;;;;;;5087209;28;20073;-81
2022/11/28 04:12:10;;;;;;;22.58;11.73;;;6.50;99.90;;;;;;5064240;28;20049;-81
2022/11/28 04:14:42;;;;;;;17.52;10.18;;;6.60;99.90;;;;;;5080232;28;20063;-80
2022/11/28 04:17:18;;;;;;;20.00;10.20;;;6.60;99.90;;;;;;5093816;28;20047;-80
2022/11/28 04:19:53;;;;;;;16.83;9.90;;;6.50;99.90;;;;;;5087616;28;20429;-79
2022/11/28 04:22:32;;;;;;;18.75;10.88;;;6.60;99.90;;;;;;5076243;28;20231;-80
2022/11/28 04:25:02;;;;;;;20.10;10.85;;;6.80;99.90;;;;;;5087277;28;20397;-81
2022/11/28 04:27:51;;;;;;;19.63;11.50;;;6.60;99.90;;;;;;5088001;28;20040;-80
2022/11/28 04:30:17;;;;;;;20.58;11.05;;;6.60;99.90;;;;;;5072378;28;20530;-81
2022/11/28 04:32:49;;;;;;;22.08;11.40;;;7.10;99.90;;;;;;5063086;28;20387;-81
2022/11/28 04:35:34;;;;;;;18.87;11.83;;;7.00;99.90;;;;;;5067536;28;20068;-79
2022/11/28 04:38:02;;;;;;;22.40;12.63;;;6.60;99.90;;;;;;5086549;28;20040;-82
2022/11/28 04:40:33;;;;;;;20.17;12.13;;;6.60;99.90;;;;;;5086252;28;20100;-81
2022/11/28 04:43:03;;;;;;;20.02;11.10;;;6.70;99.90;;;;;;5068456;28;20041;-81
2022/11/28 04:45:36;;;;;;;18.73;11.77;;;6.70;99.90;;;;;;5072580;28;20139;-80
2022/11/28 04:48:02;;;;;;;;;;;6.70;99.90;;;;;;5077801;28;20040;-80
2022/11/28 04:50:37;;;;;;;20.67;11.77;;;6.70;99.90;;;;;;5074396;28;20003;-80
2022/11/28 04:53:27;;;;;;;25.75;13.18;;;6.70;99.90;;;;;;5066499;28;20455;-80
2022/11/28 04:56:00;;;;;;;20.35;13.55;;;7.20;99.90;;;;;;5077829;28;20099;-80
2022/11/28 04:58:33;;;;;;;21.20;12.90;;;6.90;99.90;;;;;;5087630;28;20044;-79
2022/11/28 05:01:03;;;;;;;20.08;13.40;;;6.80;99.90;;;;;;5090691;28;20111;-80
2022/11/28 05:03:30;;;;;;;24.88;13.73;;;6.80;99.90;;;;;;5087538;28;20055;-82
2022/11/28 05:05:56;;;;;;;23.67;15.15;;;8.50;99.90;;;;;;5085890;28;20036;-83
2022/11/28 05:08:22;;;;;;;24.92;15.27;;;6.80;99.90;;;;;;5081300;28;20085;-81
2022/11/28 05:10:48;;;;;;;21.75;14.38;;;8.00;99.90;;;;;;5087502;28;20044;-79
2022/11/28 05:13:14;;;;;;;24.23;15.60;;;6.90;99.90;;;;;;5068953;28;20048;-79
2022/11/28 05:15:40;;;;;;;24.23;15.50;;;6.90;99.90;;;;;;5084669;28;20054;-80
2022/11/28 05:18:05;;;;;;;22.50;14.85;;;6.90;99.90;;;;;;5060688;28;20040;-81
2022/11/28 05:20:31;;;;;;;22.67;14.57;;;6.90;99.90;;;;;;5071178;28;20089;-79
2022/11/28 05:22:57;;;;;;;28.67;16.90;;;5.90;99.90;;;;;;5074460;28;20036;-81
2022/11/28 05:25:23;;;;;;;23.73;15.30;;;7.00;99.90;;;;;;5090583;28;20519;-80
2022/11/28 05:27:49;;;;;;;25.33;16.73;;;7.00;99.90;;;;;;5088419;28;20054;-79
2022/11/28 05:30:15;;;;;;;27.42;16.48;;;7.40;99.90;;;;;;5081783;28;20032;-81
2022/11/28 05:32:40;;;;;;;26.27;16.45;;;7.00;99.90;;;;;;5056423;28;20545;-80
2022/11/28 05:35:06;;;;;;;23.10;16.05;;;8.50;99.90;;;;;;5083560;28;20064;-79
2022/11/28 05:37:33;;;;;;;24.05;15.55;;;7.10;99.90;;;;;;5088582;28;20068;-81
2022/11/28 05:39:58;;;;;;;25.45;16.25;;;7.10;99.90;;;;;;5077598;28;20118;-81
2022/11/28 05:42:25;;;;;;;26.50;17.27;;;7.10;99.90;;;;;;5069897;28;20123;-78
2022/11/28 05:44:50;;;;;;;25.10;15.70;;;7.10;99.90;;;;;;5055863;28;20095;-80
2022/11/28 05:47:16;;;;;;;23.65;16.70;;;7.20;99.90;;;;;;5075356;28;20055;-81
2022/11/28 05:49:42;;;;;;;24.52;16.80;;;7.20;99.90;;;;;;5086177;28;20035;-80
2022/11/28 05:52:08;;;;;;;24.90;17.23;;;7.20;99.90;;;;;;5039468;28;20044;-80
2022/11/28 05:54:33;;;;;;;24.30;17.08;;;7.70;99.90;;;;;;5050137;28;20471;-82
2022/11/28 05:56:59;;;;;;;25.17;17.08;;;8.20;99.90;;;;;;5061390;28;20127;-79
2022/11/28 05:59:25;;;;;;;24.35;16.55;;;7.30;99.90;;;;;;5082876;28;20051;-80
2022/11/28 06:01:51;;;;;;;25.63;17.65;;;7.60;99.90;;;;;;5061369;28;20051;-80
2022/11/28 06:04:16;;;;;;;23.98;17.05;;;7.30;99.90;;;;;;5068899;28;20036;-81
2022/11/28 06:06:42;;;;;;;24.92;17.48;;;7.30;99.90;;;;;;5032150;28;20288;-80
2022/11/28 06:09:08;;;;;;;25.85;16.92;;;7.60;99.90;;;;;;5068702;28;20067;-81
2022/11/28 06:11:34;;;;;;;24.90;17.30;;;7.40;99.90;;;;;;5067787;28;20132;-80
2022/11/28 06:14:01;;;;;;;25.88;17.38;;;7.40;99.90;;;;;;5080796;28;20224;-82
2022/11/28 06:16:29;;;;;;;25.02;17.23;;;7.40;99.90;;;;;;5054462;28;20036;-81
2022/11/28 06:19:00;;;;;;;25.05;16.55;;;8.00;99.90;;;;;;5078030;28;20517;-82
2022/11/28 06:21:27;;;;;;;26.20;16.45;;;8.10;99.90;;;;;;5074920;28;20052;-81
2022/11/28 06:23:55;;;;;;;24.27;16.30;;;7.60;99.90;;;;;;5070759;28;20040;-81
2022/11/28 06:26:23;;;;;;;24.73;17.10;;;7.60;99.90;;;;;;5085645;28;20125;-79
2022/11/28 06:28:49;;;;;;;28.00;17.50;;;7.40;99.90;;;;;;5062684;28;20037;-80
2022/11/28 06:31:21;;;;;;;23.75;16.10;;;7.50;99.90;;;;;;5062718;28;20646;-81
2022/11/28 06:33:47;;;;;;;24.93;15.77;;;7.50;99.90;;;;;;5069107;28;20049;-81
2022/11/28 06:36:15;;;;;;;23.98;16.17;;;7.50;99.90;;;;;;5066156;28;20040;-81
2022/11/28 06:38:41;;;;;;;23.05;16.08;;;7.50;99.90;;;;;;5107618;28;20485;-81
2022/11/28 06:41:14;;;;;;;22.42;15.48;;;7.50;99.90;;;;;;5087157;28;20030;-80
2022/11/28 06:43:40;;;;;;;26.85;16.63;;;7.50;99.90;;;;;;5072486;28;20044;-80
2022/11/28 06:46:19;;;;;;;24.85;16.02;;;7.50;99.90;;;;;;5071526;28;20444;-81
2022/11/28 06:48:45;;;;;;;26.02;16.10;;;7.90;99.90;;;;;;5107358;28;20537;-81
2022/11/28 06:51:12;;;;;;;24.30;16.50;;;7.70;99.90;;;;;;5073541;28;20538;-81
2022/11/28 06:53:38;;;;;;;25.85;16.25;;;8.50;99.90;;;;;;5067772;28;20036;-80
2022/11/28 06:56:12;;;;;;;23.88;15.95;;;7.50;99.90;;;;;;5091620;28;20247;-81
2022/11/28 06:58:38;;;;;;;25.50;16.35;;;7.50;99.90;;;;;;5085476;28;20036;-81
2022/11/28 07:01:18;;;;;;;23.63;14.95;;;7.50;99.90;;;;;;5080941;28;20036;-81
2022/11/28 07:03:44;;;;;;;25.63;17.02;;;7.50;99.90;;;;;;5089003;28;20536;-80
2022/11/28 07:06:11;;;;;;;26.15;17.55;;;7.50;99.90;;;;;;5057752;28;20199;-80
2022/11/28 07:08:37;;;;;;;27.38;16.23;;;7.50;99.90;;;;;;5073612;28;20058;-81
2022/11/28 07:11:20;;;;;;;24.70;16.25;;;7.80;99.90;;;;;;5075478;28;20056;-79
2022/11/28 07:13:47;;;;;;;27.42;16.92;;;7.60;99.90;;;;;;5065607;28;20072;-81
2022/11/28 07:16:19;;;;;;;26.92;17.05;;;7.60;99.90;;;;;;5073341;28;20494;-80
2022/11/28 07:18:45;;;;;;;25.08;17.23;;;7.60;99.90;;;;;;5069828;28;20063;-81
2022/11/28 07:21:13;;;;;;;26.75;16.52;;;;;;;;;;5056100;28;20040;-82
2022/11/28 07:23:39;;;;;;;27.00;17.42;;;7.60;99.90;;;;;;5068567;28;20062;-79
2022/11/28 07:26:06;;;;;;;25.27;16.70;;;7.60;99.90;;;;;;5077125;28;20115;-80
2022/11/28 07:28:32;;;;;;;29.48;18.08;;;7.60;99.90;;;;;;5077787;28;20046;-81
2022/11/28 07:31:04;;;;;;;26.17;16.45;;;7.60;99.90;;;;;;5074749;28;20044;-80
2022/11/28 07:33:31;;;;;;;25.83;16.55;;;7.60;99.90;;;;;;5077824;28;20943;-82
2022/11/28 07:36:02;;;;;;;26.42;16.88;;;8.10;99.90;;;;;;5067376;28;20563;-82
2022/11/28 07:38:27;;;;;;;25.42;16.40;;;7.60;99.90;;;;;;5069954;28;20040;-81
2022/11/28 07:40:53;;;;;;;25.98;16.27;;;;;;;;;;5078745;28;20396;-81
2022/11/28 07:43:19;;;;;;;25.95;16.67;;;7.60;99.90;;;;;;5103424;28;20047;-81
2022/11/28 07:45:45;;;;;;;25.85;16.42;;;8.00;99.90;;;;;;5084617;28;20036;-82
2022/11/28 07:48:11;;;;;;;24.33;15.43;;;8.20;99.90;;;;;;5084114;28;20498;-81
2022/11/28 07:50:40;;;;;;;25.58;16.50;;;7.60;99.90;;;;;;5052321;28;20052;-82
2022/11/28 07:53:05;;;;;;;24.35;16.15;;;7.70;99.90;;;;;;5068361;28;20059;-82
2022/11/28 07:55:34;;;;;;;23.70;15.68;;;7.60;99.90;;;;;;5073389;28;20033;-80
2022/11/28 07:58:00;;;;;;;22.98;15.70;;;7.70;99.90;;;;;;5070959;28;20047;-81
2022/11/28 08:00:25;;;;;;;24.40;15.73;;;7.80;99.90;;;;;;5090709;28;20036;-81
2022/11/28 08:02:51;;;;;;;26.45;16.20;;;7.60;99.90;;;;;;5065479;28;20044;-81
2022/11/28 08:05:17;;;;;;;23.23;15.85;;;7.70;99.90;;;;;;5082896;28;20045;-81
2022/11/28 08:07:42;;;;;;;25.50;16.17;;;7.60;99.90;;;;;;5072079;28;20537;-80
2022/11/28 08:10:11;;;;;;;23.58;14.85;;;7.70;99.90;;;;;;5068041;28;20249;-82
2022/11/28 08:12:36;;;;;;;23.70;15.43;;;7.60;99.90;;;;;;5069366;28;20140;-83
2022/11/28 08:15:02;;;;;;;25.90;15.45;;;9.00;99.90;;;;;;5067327;28;20123;-80
2022/11/28 08:17:32;;;;;;;23.15;15.13;;;7.70;99.90;;;;;;5078130;28;20394;-80
2022/11/28 08:19:57;;;;;;;21.67;14.13;;;7.60;99.90;;;;;;5074964;28;20052;-81
2022/11/28 08:22:23;;;;;;;20.95;14.65;;;7.90;99.90;;;;;;5068275;28;20044;-81
2022/11/28 08:24:49;;;;;;;23.05;15.05;;;7.70;99.90;;;;;;5077484;28;20454;-81
2022/11/28 08:27:15;;;;;;;24.02;14.68;;;7.70;99.90;;;;;;5076303;28;20144;-81
2022/11/28 08:29:41;;;;;;;21.13;14.05;;;7.70;99.90;;;;;;5077952;28;20491;-80
2022/11/28 08:32:06;;;;;;;22.23;14.02;;;7.70;99.90;;;;;;5076627;28;20036;-80
2022/11/28 08:34:32;;;;;;;26.35;15.15;;;7.70;99.90;;;;;;5079988;28;20063;-81
2022/11/28 08:36:58;;;;;;;20.67;13.15;;;7.70;99.90;;;;;;5081369;28;20044;-82
2022/11/28 08:39:24;;;;;;;20.40;13.15;;;7.70;99.90;;;;;;5072536;28;20522;-81
2022/11/28 08:41:49;;;;;;;25.55;15.23;;;7.70;99.90;;;;;;5079483;28;20048;-81
2022/11/28 08:44:15;;;;;;;22.95;13.48;;;7.70;99.90;;;;;;5062588;28;20071;-81
2022/11/28 08:46:41;;;;;;;19.90;13.38;;;7.70;99.90;;;;;;5069776;28;20071;-82
2022/11/28 08:49:07;;;;;;;22.52;13.70;;;7.70;99.90;;;;;;5052523;28;20112;-82
2022/11/28 08:51:33;;;;;;;19.85;12.93;;;;;;;;;;5060371;28;20071;-81
2022/11/28 08:53:59;;;;;;;22.00;12.93;;;7.70;99.90;;;;;;5069235;28;20097;-81
2022/11/28 08:56:25;;;;;;;22.45;12.65;;;7.70;99.90;;;;;;5072661;28;20032;-81
2022/11/28 08:58:51;;;;;;;22.70;12.85;;;7.80;99.90;;;;;;5076864;28;20042;-81
2022/11/28 09:01:22;;;;;;;20.70;12.40;;;8.90;99.90;;;;;;5071613;28;20099;-81
2022/11/28 09:03:49;;;;;;;19.52;12.20;;;8.50;99.90;;;;;;5077959;28;20117;-80
2022/11/28 09:06:16;;;;;;;17.75;11.95;;;7.70;99.90;;;;;;5079944;28;20040;-80
2022/11/28 09:08:42;;;;;;;18.48;11.80;;;7.80;99.90;;;;;;5073611;28;20596;-80
2022/11/28 09:11:11;;;;;;;18.95;11.25;;;9.00;99.90;;;;;;5071656;28;20068;-81
2022/11/28 09:13:40;;;;;;;17.08;10.73;;;7.80;99.90;;;;;;5079943;28;20052;-82
2022/11/28 09:16:06;;;;;;;16.08;10.18;;;8.30;99.90;;;;;;5091649;28;20545;-81
2022/11/28 09:18:32;;;;;;;17.25;10.57;;;7.80;99.90;;;;;;5068357;28;20107;-80
2022/11/28 09:21:04;;;;;;;15.90;9.55;;;7.90;99.90;;;;;;5068459;28;20175;-81
2022/11/28 09:23:30;;;;;;;17.30;10.30;;;7.80;99.90;;;;;;5074997;28;20044;-82
2022/11/28 09:25:56;;;;;;;18.02;9.95;;;7.90;99.90;;;;;;5082207;28;20040;-81
2022/11/28 09:28:22;;;;;;;15.73;9.20;;;;;;;;;;5083676;28;20044;-80
2022/11/28 09:30:48;;;;;;;15.30;8.68;;;7.90;99.90;;;;;;5066586;28;20036;-82
2022/11/28 09:33:14;;;;;;;15.32;9.05;;;7.90;99.90;;;;;;5069840;28;20044;-80
2022/11/28 09:35:40;;;;;;;14.10;8.55;;;7.90;99.90;;;;;;5068302;28;20171;-82
2022/11/28 09:38:06;;;;;;;14.80;9.02;;;7.90;99.90;;;;;;5062153;28;20032;-80
2022/11/28 09:40:37;;;;;;;13.35;7.78;;;7.50;99.90;;;;;;5036118;28;20400;-81
2022/11/28 09:43:10;;;;;;;14.07;8.05;;;7.90;99.90;;;;;;5076646;28;20427;-81
2022/11/28 09:45:37;;;;;;;13.05;7.63;;;7.90;99.90;;;;;;5067533;28;20052;-79
2022/11/28 09:48:33;;;;;;;13.68;7.50;;;8.20;99.90;;;;;;5071229;28;20427;-81
2022/11/28 09:51:20;;;;;;;13.10;7.28;;;7.90;99.90;;;;;;5054058;28;20097;-80
2022/11/28 09:54:01;;;;;;;12.90;7.25;;;7.90;99.90;;;;;;5068190;28;20070;-81
2022/11/28 09:56:26;;;;;;;12.05;6.63;;;7.90;99.90;;;;;;5086597;28;20567;-79
2022/11/28 09:59:01;;;;;;;11.88;6.90;;;7.90;99.90;;;;;;5054802;28;20169;-80
2022/11/28 10:01:45;;;;;;;12.05;6.47;;;8.00;99.90;;;;;;5071910;28;20389;-81
2022/11/28 10:04:41;;;;;;;11.80;6.35;;;8.00;99.90;;;;;;5075686;28;20039;-80
2022/11/28 10:07:41;;;;;;;11.18;6.28;;;8.00;99.90;;;;;;5070942;28;20457;-80
2022/11/28 10:10:28;;;;;;;12.50;6.60;;;8.00;99.90;;;;;;5075664;28;20032;-81
2022/11/28 10:13:18;;;;;;;12.73;6.53;;;8.00;99.90;;;;;;5076054;28;20123;-81
2022/11/28 10:16:08;;;;;;;12.65;6.45;;;8.00;99.90;;;;;;5069788;28;20041;-81
2022/11/28 10:18:40;;;;;;;11.35;6.32;;;8.00;99.90;;;;;;5056218;28;20051;-81
2022/11/28 10:21:27;;;;;;;11.85;6.07;;;7.40;99.90;;;;;;5082540;28;20036;-80
2022/11/28 10:23:58;;;;;;;11.38;6.03;;;8.00;99.90;;;;;;5059175;28;20508;-80
2022/11/28 10:26:38;;;;;;;12.43;6.57;;;8.00;99.90;;;;;;5069805;28;20405;-80
2022/11/28 10:29:16;;;;;;;11.68;6.00;;;8.00;99.90;;;;;;5082679;28;20573;-80
2022/11/28 10:31:45;;;;;;;12.88;6.63;;;8.00;99.90;;;;;;5071039;28;20044;-80
2022/11/28 10:34:23;;;;;;;11.70;6.40;;;8.00;99.90;;;;;;5071217;28;20517;-80
2022/11/28 10:37:25;;;;;;;11.30;6.15;;;8.00;99.90;;;;;;5066793;28;20429;-81
2022/11/28 10:39:51;;;;;;;11.55;6.00;;;8.10;99.90;;;;;;5085361;28;20064;-79
2022/11/28 10:42:16;;;;;;;11.75;6.30;;;8.10;99.90;;;;;;5075583;28;20097;-80
2022/11/28 10:44:57;;;;;;;11.45;6.20;;;7.80;99.90;;;;;;5061146;28;20123;-80
2022/11/28 10:48:01;;;;;;;12.07;6.03;;;8.10;99.90;;;;;;5069457;28;20044;-80
2022/11/28 10:51:10;;;;;;;12.05;6.25;;;8.10;99.90;;;;;;5070321;28;20044;-80
2022/11/28 10:53:50;;;;;;;10.90;5.63;;;8.10;99.90;;;;;;5050994;28;20060;-80
2022/11/28 10:56:15;;;;;;;11.80;6.35;;;8.20;99.90;;;;;;5084474;28;20058;-81
2022/11/28 10:59:12;;;;;;;12.07;6.28;;;8.20;99.90;;;;;;5060778;28;20056;-80
2022/11/28 11:01:39;;;;;;;11.73;6.18;;;8.20;99.90;;;;;;5068411;28;20118;-79
2022/11/28 11:04:16;;;;;;;11.27;6.13;;;8.20;99.90;;;;;;5054714;28;20040;-81
2022/11/28 11:06:42;;;;;;;11.40;5.88;;;8.10;99.90;;;;;;5085838;28;20051;-81
2022/11/28 11:09:12;;;;;;;11.52;5.75;;;8.20;99.90;;;;;;5072233;28;20029;-81
2022/11/28 11:11:49;;;;;;;12.15;6.10;;;8.30;99.90;;;;;;5053671;28;20433;-81
2022/11/28 11:14:48;;;;;;;13.18;7.32;;;8.90;99.90;;;;;;5069806;28;20513;-79
2022/11/28 11:17:25;;;;;;;12.45;6.53;;;8.30;99.90;;;;;;5069964;28;20046;-79
2022/11/28 11:19:51;;;;;;;11.98;6.47;;;8.30;99.90;;;;;;5077182;28;20045;-80
2022/11/28 11:22:21;;;;;;;12.63;6.47;;;8.70;99.90;;;;;;5082102;28;20048;-81
2022/11/28 11:25:12;;;;;;;11.65;6.53;;;8.30;99.90;;;;;;5078174;28;20036;-80
2022/11/28 11:27:49;;;;;;;11.55;6.50;;;8.40;99.90;;;;;;5070429;28;20430;-80
2022/11/28 11:30:27;;;;;;;11.57;6.55;;;8.20;99.90;;;;;;5084781;28;20040;-81
2022/11/28 11:32:55;;;;;;;12.25;7.15;;;7.70;99.90;;;;;;5071153;28;20516;-81
2022/11/28 11:35:24;;;;;;;12.18;6.57;;;8.40;99.90;;;;;;5054082;28;20571;-80
2022/11/28 11:37:50;;;;;;;12.70;7.05;;;9.10;99.90;;;;;;5072718;28;20036;-81
2022/11/28 11:40:27;;;;;;;12.15;7.28;;;8.40;99.90;;;;;;5083022;28;20036;-81
2022/11/28 11:43:00;;;;;;;13.10;6.97;;;8.40;99.90;;;;;;5068732;28;20066;-81
2022/11/28 11:45:28;;;;;;;12.27;7.40;;;8.40;99.90;;;;;;5077351;28;20329;-81
2022/11/28 11:47:57;;;;;;;12.65;7.20;;;8.50;99.90;;;;;;5053686;28;20051;-80
2022/11/28 11:50:25;;;;;;;12.02;7.10;;;8.50;99.90;;;;;;5086543;28;20420;-80
2022/11/28 11:53:09;;;;;;;12.50;7.07;;;8.50;99.90;;;;;;5070372;28;20094;-80
2022/11/28 11:55:57;;;;;;;12.35;6.90;;;8.50;99.90;;;;;;5083568;28;20032;-80
2022/11/28 11:58:27;;;;;;;12.07;6.90;;;8.50;99.90;;;;;;5066911;28;20024;-80
2022/11/28 12:00:56;;;;;;;12.20;6.90;;;8.50;99.90;;;;;;5069411;28;20040;-80
2022/11/28 12:03:48;;;;;;;12.68;6.88;;;8.70;99.90;;;;;;5061584;28;20262;-81
2022/11/28 12:06:22;;;;;;;13.18;7.32;;;8.50;99.90;;;;;;5085332;28;20052;-81
2022/11/28 12:09:24;;;;;;;13.77;7.05;;;8.50;99.90;;;;;;5078774;28;20071;-81
2022/11/28 12:12:14;;;;;;;10.85;6.03;;;8.50;99.90;;;;;;5079233;28;20067;-81
2022/11/28 12:14:43;;;;;;;14.45;7.70;;;8.60;99.90;;;;;;5069008;28;20054;-81
2022/11/28 12:17:19;;;;;;;14.13;8.00;;;10.10;99.90;;;;;;5056194;28;20604;-81
2022/11/28 12:19:50;;;;;;;13.77;8.07;;;8.60;99.90;;;;;;5076110;28;20040;-80
2022/11/28 12:22:22;;;;;;;12.45;7.40;;;8.60;99.90;;;;;;5071728;28;20117;-81
2022/11/28 12:25:00;;;;;;;16.40;8.10;;;;;;;;;;5070806;28;20490;-81
2022/11/28 12:28:00;;;;;;;14.48;8.00;;;8.60;99.90;;;;;;5070180;28;20090;-81
2022/11/28 12:30:46;;;;;;;13.45;7.68;;;8.60;99.90;;;;;;5058781;28;20071;-81
2022/11/28 12:33:38;;;;;;;14.32;8.10;;;8.80;99.90;;;;;;5069279;28;20045;-80
2022/11/28 12:36:16;;;;;;;11.75;7.13;;;8.60;99.90;;;;;;5080363;28;20043;-81
2022/11/28 12:39:01;;;;;;;12.95;7.55;;;8.60;99.90;;;;;;5061742;28;20055;-81
2022/11/28 12:41:38;;;;;;;13.35;8.05;;;8.60;99.90;;;;;;5056980;28;20401;-80
2022/11/28 12:44:25;;;;;;;13.15;7.75;;;9.30;99.90;;;;;;5078310;28;20492;-81
2022/11/28 12:47:14;;;;;;;15.18;8.40;;;8.70;99.90;;;;;;5074165;28;20032;-80
2022/11/28 12:49:55;;;;;;;15.45;8.98;;;10.20;99.90;;;;;;5070190;28;20048;-80
2022/11/28 12:52:45;;;;;;;15.18;8.73;;;8.60;99.90;;;;;;5067297;28;20040;-81
2022/11/28 12:55:30;;;;;;;13.90;8.38;;;8.70;99.90;;;;;;5053636;28;20079;-80
2022/11/28 12:58:34;;;;;;;14.32;8.18;;;8.70;99.90;;;;;;5071111;28;20045;-80
2022/11/28 13:01:31;;;;;;;15.35;9.18;;;8.70;99.90;;;;;;5070106;28;20043;-80
2022/11/28 13:04:15;;;;;;;15.32;8.50;;;9.10;99.90;;;;;;5076413;28;20098;-80
2022/11/28 13:07:02;;;;;;;16.30;8.68;;;8.70;99.90;;;;;;5077797;28;20071;-81
2022/11/28 13:09:45;;;;;;;13.43;8.10;;;8.70;99.90;;;;;;5071486;28;20047;-80
2022/11/28 13:12:20;;;;;;;13.73;8.73;;;8.30;99.90;;;;;;5074696;28;20048;-80
2022/11/28 13:14:59;;;;;;;13.82;8.52;;;9.50;99.90;;;;;;5076690;28;20418;-81
2022/11/28 13:17:57;;;;;;;13.32;8.13;;;9.10;99.90;;;;;;5074895;28;20036;-80